sensor_id;sensor_type;location;lat;lon;timestamp;P1;durP1;ratioP1;P2;durP2;ratioP2
6926;SDS011;3503;50.07605000;8.86719200;2023-06-24T00:01:22;7.87;;;5.20;;
6926;SDS011;3503;50.07605000;8.86719200;2023-06-24T00:16:25;9.30;;;4.53;;
6926;SDS011;3503;50.07605000;8.86719200;2023-06-24T00:31:28;7.20;;;4.93;;
6926;SDS011;3503;50.07605000;8.86719200;2023-06-24T00:46:31;8.50;;;4.47;;
6926;SDS011;3503;50.07605000;8.86719200;2023-06-24T01:01:35;10.83;;;5.63;;
6926;SDS011;3503;50.07605000;8.86719200;2023-06-24T01:16:40;8.53;;;5.37;;
6926;SDS011;3503;50.07605000;8.86719200;2023-06-24T01:31:46;9.83;;;5.20;;
6926;SDS011;3503;50.07605000;8.86719200;2023-06-24T01:46:51;10.53;;;5.90;;
6926;SDS011;3503;50.07605000;8.86719200;2023-06-24T02:01:58;9.27;;;4.97;;
6926;SDS011;3503;50.07605000;8.86719200;2023-06-24T02:17:01;8.90;;;5.93;;
6926;SDS011;3503;50.07605000;8.86719200;2023-06-24T02:32:07;9.03;;;5.20;;
6926;SDS011;3503;50.07605000;8.86719200;2023-06-24T02:47:11;9.27;;;5.13;;
6926;SDS011;3503;50.07605000;8.86719200;2023-06-24T03:02:15;9.07;;;5.67;;
6926;SDS011;3503;50.07605000;8.86719200;2023-06-24T03:17:18;8.73;;;4.37;;
6926;SDS011;3503;50.07605000;8.86719200;2023-06-24T03:32:21;10.00;;;5.37;;
6926;SDS011;3503;50.07605000;8.86719200;2023-06-24T03:47:24;9.83;;;6.60;;
6926;SDS011;3503;50.07605000;8.86719200;2023-06-24T04:02:27;9.00;;;4.97;;
6926;SDS011;3503;50.07605000;8.86719200;2023-06-24T04:17:30;12.37;;;6.60;;
6926;SDS011;3503;50.07605000;8.86719200;2023-06-24T04:32:33;13.70;;;7.53;;
6926;SDS011;3503;50.07605000;8.86719200;2023-06-24T04:47:36;10.17;;;6.37;;
6926;SDS011;3503;50.07605000;8.86719200;2023-06-24T05:02:39;14.10;;;7.60;;
6926;SDS011;3503;50.07605000;8.86719200;2023-06-24T05:17:42;15.30;;;8.27;;
6926;SDS011;3503;50.07605000;8.86719200;2023-06-24T05:32:45;14.10;;;8.33;;
6926;SDS011;3503;50.07605000;8.86719200;2023-06-24T05:47:48;21.50;;;11.33;;
6926;SDS011;3503;50.07605000;8.86719200;2023-06-24T06:02:52;10.43;;;7.50;;
6926;SDS011;3503;50.07605000;8.86719200;2023-06-24T06:17:55;13.53;;;8.00;;
6926;SDS011;3503;50.07605000;8.86719200;2023-06-24T06:33:00;11.50;;;7.00;;
6926;SDS011;3503;50.07605000;8.86719200;2023-06-24T06:48:06;11.67;;;7.60;;
6926;SDS011;3503;50.07605000;8.86719200;2023-06-24T07:03:10;12.60;;;8.23;;
6926;SDS011;3503;50.07605000;8.86719200;2023-06-24T07:18:12;13.93;;;9.47;;
6926;SDS011;3503;50.07605000;8.86719200;2023-06-24T07:33:15;11.80;;;7.20;;
6926;SDS011;3503;50.07605000;8.86719200;2023-06-24T07:48:18;14.57;;;8.77;;
6926;SDS011;3503;50.07605000;8.86719200;2023-06-24T08:03:21;7.83;;;5.53;;
6926;SDS011;3503;50.07605000;8.86719200;2023-06-24T08:18:24;7.70;;;4.83;;
6926;SDS011;3503;50.07605000;8.86719200;2023-06-24T08:33:27;12.07;;;5.87;;
6926;SDS011;3503;50.07605000;8.86719200;2023-06-24T08:48:30;10.47;;;4.90;;
6926;SDS011;3503;50.07605000;8.86719200;2023-06-24T09:03:34;8.53;;;4.57;;
6926;SDS011;3503;50.07605000;8.86719200;2023-06-24T09:18:37;6.30;;;4.60;;
6926;SDS011;3503;50.07605000;8.86719200;2023-06-24T09:33:40;8.40;;;4.80;;
6926;SDS011;3503;50.07605000;8.86719200;2023-06-24T09:48:43;8.70;;;3.83;;
6926;SDS011;3503;50.07605000;8.86719200;2023-06-24T10:03:46;6.10;;;3.57;;
6926;SDS011;3503;50.07605000;8.86719200;2023-06-24T10:18:50;4.50;;;3.30;;
6926;SDS011;3503;50.07605000;8.86719200;2023-06-24T10:33:53;5.57;;;3.80;;
6926;SDS011;3503;50.07605000;8.86719200;2023-06-24T10:48:56;5.70;;;3.80;;
6926;SDS011;3503;50.07605000;8.86719200;2023-06-24T11:03:59;9.20;;;5.40;;
6926;SDS011;3503;50.07605000;8.86719200;2023-06-24T11:19:08;8.00;;;3.40;;
6926;SDS011;3503;50.07605000;8.86719200;2023-06-24T11:34:11;7.87;;;3.70;;
6926;SDS011;3503;50.07605000;8.86719200;2023-06-24T11:49:16;5.90;;;3.73;;
6926;SDS011;3503;50.07605000;8.86719200;2023-06-24T12:04:20;6.70;;;3.63;;
6926;SDS011;3503;50.07605000;8.86719200;2023-06-24T12:19:23;5.33;;;3.17;;
6926;SDS011;3503;50.07605000;8.86719200;2023-06-24T12:34:27;5.63;;;3.03;;
6926;SDS011;3503;50.07605000;8.86719200;2023-06-24T12:49:30;5.60;;;3.27;;
6926;SDS011;3503;50.07605000;8.86719200;2023-06-24T13:04:33;4.90;;;3.43;;
6926;SDS011;3503;50.07605000;8.86719200;2023-06-24T13:19:36;5.43;;;3.90;;
6926;SDS011;3503;50.07605000;8.86719200;2023-06-24T13:34:39;4.97;;;3.63;;
6926;SDS011;3503;50.07605000;8.86719200;2023-06-24T13:49:42;5.10;;;3.43;;
6926;SDS011;3503;50.07605000;8.86719200;2023-06-24T14:04:45;8.80;;;3.57;;
6926;SDS011;3503;50.07605000;8.86719200;2023-06-24T14:19:49;4.80;;;3.57;;
6926;SDS011;3503;50.07605000;8.86719200;2023-06-24T14:34:52;5.07;;;3.13;;
6926;SDS011;3503;50.07605000;8.86719200;2023-06-24T14:49:55;4.40;;;3.33;;
6926;SDS011;3503;50.07605000;8.86719200;2023-06-24T15:04:58;4.93;;;3.47;;
6926;SDS011;3503;50.07605000;8.86719200;2023-06-24T15:20:01;5.37;;;3.73;;
6926;SDS011;3503;50.07605000;8.86719200;2023-06-24T15:35:05;5.20;;;3.70;;
6926;SDS011;3503;50.07605000;8.86719200;2023-06-24T15:50:09;5.20;;;3.50;;
6926;SDS011;3503;50.07605000;8.86719200;2023-06-24T16:05:12;4.43;;;3.57;;
6926;SDS011;3503;50.07605000;8.86719200;2023-06-24T16:20:15;5.30;;;3.67;;
6926;SDS011;3503;50.07605000;8.86719200;2023-06-24T16:35:18;5.50;;;4.03;;
6926;SDS011;3503;50.07605000;8.86719200;2023-06-24T16:50:22;7.07;;;3.93;;
6926;SDS011;3503;50.07605000;8.86719200;2023-06-24T17:05:25;6.30;;;3.60;;
6926;SDS011;3503;50.07605000;8.86719200;2023-06-24T17:20:28;6.70;;;2.90;;
6926;SDS011;3503;50.07605000;8.86719200;2023-06-24T17:35:31;5.57;;;3.80;;
6926;SDS011;3503;50.07605000;8.86719200;2023-06-24T17:50:34;7.50;;;4.20;;
6926;SDS011;3503;50.07605000;8.86719200;2023-06-24T18:05:38;11.53;;;6.33;;
6926;SDS011;3503;50.07605000;8.86719200;2023-06-24T18:20:41;7.17;;;4.20;;
6926;SDS011;3503;50.07605000;8.86719200;2023-06-24T18:35:44;6.50;;;4.33;;
6926;SDS011;3503;50.07605000;8.86719200;2023-06-24T18:50:47;9.60;;;4.10;;
6926;SDS011;3503;50.07605000;8.86719200;2023-06-24T19:05:50;7.93;;;4.20;;
6926;SDS011;3503;50.07605000;8.86719200;2023-06-24T19:20:54;7.47;;;4.60;;
6926;SDS011;3503;50.07605000;8.86719200;2023-06-24T19:35:57;8.80;;;5.20;;
6926;SDS011;3503;50.07605000;8.86719200;2023-06-24T19:51:00;6.93;;;4.23;;
6926;SDS011;3503;50.07605000;8.86719200;2023-06-24T20:06:03;11.60;;;5.17;;
6926;SDS011;3503;50.07605000;8.86719200;2023-06-24T20:21:06;7.67;;;5.03;;
6926;SDS011;3503;50.07605000;8.86719200;2023-06-24T20:36:15;7.17;;;4.57;;
6926;SDS011;3503;50.07605000;8.86719200;2023-06-24T20:51:18;9.57;;;5.80;;
6926;SDS011;3503;50.07605000;8.86719200;2023-06-24T21:06:21;8.07;;;5.07;;
6926;SDS011;3503;50.07605000;8.86719200;2023-06-24T21:21:24;14.20;;;5.50;;
6926;SDS011;3503;50.07605000;8.86719200;2023-06-24T21:36:28;9.47;;;6.47;;
6926;SDS011;3503;50.07605000;8.86719200;2023-06-24T21:51:31;6.80;;;4.80;;
6926;SDS011;3503;50.07605000;8.86719200;2023-06-24T22:06:36;9.53;;;6.07;;
6926;SDS011;3503;50.07605000;8.86719200;2023-06-24T22:21:39;10.47;;;6.23;;
6926;SDS011;3503;50.07605000;8.86719200;2023-06-24T22:36:42;11.30;;;6.47;;
6926;SDS011;3503;50.07605000;8.86719200;2023-06-24T22:51:45;11.60;;;5.77;;
6926;SDS011;3503;50.07605000;8.86719200;2023-06-24T23:06:48;8.20;;;5.90;;
6926;SDS011;3503;50.07605000;8.86719200;2023-06-24T23:21:52;12.30;;;7.53;;
6926;SDS011;3503;50.07605000;8.86719200;2023-06-24T23:36:55;9.17;;;6.60;;
6926;SDS011;3503;50.07605000;8.86719200;2023-06-24T23:52:00;10.00;;;6.50;;
